createdAt,value
2018-08-24T00:03:37.740Z,57.17
2018-08-24T00:08:40.748Z,57.60
2018-08-24T00:13:43.780Z,63.50
2018-08-24T00:18:46.834Z,61.97
2018-08-24T00:23:49.868Z,61.23
2018-08-24T00:28:52.900Z,53.43
2018-08-24T00:33:55.927Z,51.57
2018-08-24T00:38:58.990Z,49.93
2018-08-24T00:44:02.027Z,48.23
2018-08-24T00:49:05.060Z,44.97
2018-08-24T00:54:08.147Z,45.33
2018-08-24T00:59:11.178Z,44.70
2018-08-24T01:04:17.443Z,41.57
2018-08-24T01:09:20.527Z,46.93
2018-08-24T01:14:23.580Z,48.83
2018-08-24T01:19:26.622Z,46.07
2018-08-24T01:24:31.486Z,41.73
2018-08-24T01:29:36.232Z,45.67
2018-08-24T01:34:39.284Z,48.20
2018-08-24T01:39:42.617Z,49.43
2018-08-24T01:44:45.723Z,53.93
2018-08-24T01:49:48.743Z,55.97
2018-08-24T01:54:51.836Z,50.13
2018-08-24T01:59:54.873Z,75.87
2018-08-24T02:04:57.934Z,90.33
2018-08-24T02:10:00.954Z,91.83
2018-08-24T02:15:03.981Z,94.00
2018-08-24T02:20:12.354Z,106.93
2018-08-24T02:25:15.508Z,113.53
2018-08-24T02:30:18.556Z,96.63
2018-08-24T02:35:21.581Z,91.73
2018-08-24T02:40:24.620Z,86.93
2018-08-24T02:45:27.710Z,82.93
2018-08-24T02:50:30.744Z,85.53
2018-08-24T02:55:34.160Z,74.43
2018-08-24T03:00:37.225Z,54.30
2018-08-24T03:05:40.466Z,54.50
2018-08-24T03:10:43.349Z,51.03
2018-08-24T03:15:46.462Z,55.13
2018-08-24T03:20:49.535Z,55.90
2018-08-24T03:25:52.703Z,47.37
2018-08-24T03:30:55.769Z,52.50
2018-08-24T03:36:00.404Z,52.83
2018-08-24T03:41:03.531Z,57.47
2018-08-24T03:46:06.626Z,62.37
2018-08-24T03:51:09.688Z,66.00
2018-08-24T03:56:12.819Z,56.70
2018-08-24T04:01:15.873Z,49.90
2018-08-24T04:06:18.925Z,51.83
2018-08-24T04:11:21.967Z,47.33
2018-08-24T04:16:25.000Z,50.73
2018-08-24T04:21:28.055Z,48.07
2018-08-24T04:26:31.091Z,46.60
2018-08-24T04:31:34.140Z,41.00
2018-08-24T04:36:37.184Z,34.00
2018-08-24T04:41:40.883Z,31.37
2018-08-24T04:46:43.936Z,30.77
2018-08-24T04:51:46.973Z,28.00
2018-08-24T04:56:50.016Z,26.00
2018-08-24T05:01:53.024Z,25.43
2018-08-24T05:06:56.067Z,24.67
2018-08-24T05:11:59.107Z,32.57
2018-08-24T05:17:02.174Z,23.50
2018-08-24T05:22:05.576Z,27.30
2018-08-24T05:27:08.712Z,31.47
2018-08-24T05:32:11.731Z,26.97
2018-08-24T05:37:14.765Z,32.73
2018-08-24T05:42:17.813Z,36.60
2018-08-24T05:47:20.840Z,31.57
2018-08-24T05:52:23.865Z,32.90
2018-08-24T05:57:26.887Z,31.40
2018-08-24T06:02:29.963Z,33.03
2018-08-24T06:07:32.993Z,31.37
2018-08-24T06:12:36.032Z,31.00
2018-08-24T06:17:44.667Z,26.30
2018-08-24T06:22:47.752Z,32.33
2018-08-24T06:27:50.781Z,30.57
2018-08-24T06:32:53.861Z,34.70
2018-08-24T06:37:56.876Z,26.03
2018-08-24T06:42:59.925Z,26.70
2018-08-24T06:48:03.048Z,22.57
2018-08-24T06:53:06.187Z,23.43
2018-08-24T06:58:09.156Z,19.53
2018-08-24T07:03:12.307Z,24.83
2018-08-24T07:08:15.360Z,23.77
2018-08-24T07:13:18.430Z,29.73
2018-08-24T07:18:21.463Z,24.90
2018-08-24T07:23:24.499Z,22.73
2018-08-24T07:28:27.532Z,19.17
2018-08-24T07:33:30.609Z,18.23
2018-08-24T07:38:33.798Z,16.50
2018-08-24T07:43:36.829Z,16.13
2018-08-24T07:48:39.832Z,13.30
2018-08-24T07:53:42.880Z,13.10
2018-08-24T07:58:45.903Z,11.97
2018-08-24T08:03:48.961Z,11.93
2018-08-24T08:08:51.980Z,12.93
2018-08-24T08:13:55.028Z,15.57
2018-08-24T08:18:58.084Z,20.40
2018-08-24T08:24:01.175Z,18.77
2018-08-24T08:29:04.208Z,21.60
2018-08-24T08:34:07.407Z,19.60
2018-08-24T08:39:12.023Z,21.90
2018-08-24T08:44:15.479Z,24.60
2018-08-24T08:49:18.528Z,20.00
2018-08-24T08:54:21.791Z,20.60
2018-08-24T08:59:25.015Z,14.23
2018-08-24T09:04:28.071Z,17.30
2018-08-24T09:09:31.135Z,12.80
2018-08-24T09:14:34.624Z,8.63
2018-08-24T09:19:44.477Z,11.83
2018-08-24T09:24:52.964Z,11.33
2018-08-24T09:29:57.702Z,9.30
2018-08-24T09:35:00.744Z,4.93
2018-08-24T09:40:04.049Z,8.73
2018-08-24T09:45:07.169Z,7.57
2018-08-24T09:50:15.548Z,7.10
2018-08-24T09:55:18.809Z,6.50
2018-08-24T10:00:24.766Z,8.73
2018-08-24T10:05:33.351Z,8.53
2018-08-24T10:10:36.387Z,10.20
2018-08-24T10:15:39.473Z,9.80
2018-08-24T10:20:42.516Z,14.90
2018-08-24T10:25:45.584Z,8.80
2018-08-24T10:30:48.938Z,9.93
2018-08-24T10:35:51.991Z,8.53
2018-08-24T10:40:55.093Z,8.67
2018-08-24T10:45:59.359Z,6.33
2018-08-24T10:51:02.374Z,5.23
2018-08-24T10:56:05.637Z,5.20
2018-08-24T11:01:08.584Z,5.20
2018-08-24T11:06:11.634Z,4.33
2018-08-24T11:11:14.646Z,4.77
2018-08-24T11:16:17.745Z,6.00
2018-08-24T11:21:20.980Z,2.47
2018-08-24T11:26:24.973Z,4.47
2018-08-24T11:31:28.012Z,6.60
2018-08-24T11:36:31.037Z,6.40
2018-08-24T11:41:35.294Z,5.27
2018-08-24T11:46:38.312Z,6.03
2018-08-24T11:51:41.491Z,5.70
2018-08-24T11:56:44.525Z,5.10
2018-08-24T12:01:47.576Z,5.13
2018-08-24T12:06:50.596Z,6.23
2018-08-24T12:11:53.653Z,7.77
2018-08-24T12:16:56.725Z,7.13
2018-08-24T12:21:59.771Z,7.17
2018-08-24T12:27:02.839Z,7.17
2018-08-24T12:32:06.312Z,7.50
2018-08-24T12:37:11.592Z,6.63
2018-08-24T12:42:14.669Z,8.40
2018-08-24T12:47:17.679Z,12.20
2018-08-24T12:52:20.696Z,10.90
2018-08-24T12:57:27.429Z,9.80
2018-08-24T13:02:30.459Z,8.17
2018-08-24T13:07:33.531Z,6.60
2018-08-24T13:12:36.593Z,7.87
2018-08-24T13:17:39.624Z,6.70
2018-08-24T13:22:42.713Z,5.97
2018-08-24T13:27:51.161Z,10.60
2018-08-24T13:32:54.290Z,8.80
2018-08-24T13:37:57.336Z,8.70
2018-08-24T13:43:00.604Z,9.70
2018-08-24T13:48:03.964Z,10.53
2018-08-24T13:53:07.004Z,7.20
2018-08-24T13:58:10.041Z,8.03
2018-08-24T14:03:13.066Z,9.30
2018-08-24T14:08:16.086Z,9.87
2018-08-24T14:13:19.352Z,13.90
2018-08-24T14:18:22.376Z,9.27
2018-08-24T14:23:25.486Z,9.20
2018-08-24T14:28:28.504Z,9.00
2018-08-24T14:33:31.546Z,7.60
2018-08-24T14:38:34.601Z,9.00
2018-08-24T14:43:37.772Z,12.17
2018-08-24T14:48:41.009Z,9.20
2018-08-24T14:53:44.093Z,8.03
2018-08-24T14:58:47.138Z,9.20
2018-08-24T15:03:50.183Z,9.57
2018-08-24T15:08:53.239Z,8.20
2018-08-24T15:13:56.317Z,8.97
2018-08-24T15:18:59.275Z,8.97
2018-08-24T15:24:02.291Z,9.57
2018-08-24T15:29:05.342Z,10.63
2018-08-24T15:34:08.478Z,8.63
2018-08-24T15:39:12.725Z,8.20
2018-08-24T15:44:15.764Z,7.57
2018-08-24T15:49:18.778Z,13.10
2018-08-24T15:54:21.945Z,10.70
2018-08-24T15:59:25.288Z,12.50
2018-08-24T16:04:28.311Z,11.63
2018-08-24T16:09:31.337Z,9.53
2018-08-24T16:14:34.387Z,11.37
2018-08-24T16:19:37.437Z,10.87
2018-08-24T16:24:40.494Z,9.20
2018-08-24T16:29:43.541Z,11.40
2018-08-24T16:34:46.629Z,9.13
2018-08-24T16:39:49.688Z,11.47
2018-08-24T16:44:52.759Z,9.63
2018-08-24T16:49:55.820Z,8.03
2018-08-24T16:54:58.881Z,5.27
2018-08-24T17:00:01.985Z,6.67
2018-08-24T17:05:05.420Z,5.70
2018-08-24T17:10:09.016Z,6.40
2018-08-24T17:15:12.127Z,6.77
2018-08-24T17:20:15.174Z,6.30
2018-08-24T17:25:18.214Z,5.70
2018-08-24T17:30:21.241Z,4.90
2018-08-24T17:35:24.267Z,4.70
2018-08-24T17:40:27.363Z,7.50
2018-08-24T17:45:30.402Z,5.50
2018-08-24T17:50:33.433Z,6.53
2018-08-24T17:55:36.576Z,3.33
2018-08-24T18:00:39.758Z,7.00
2018-08-24T18:05:42.818Z,6.63
2018-08-24T18:10:45.876Z,3.40
2018-08-24T18:15:49.000Z,4.27
2018-08-24T18:20:52.031Z,5.03
2018-08-24T18:25:55.224Z,3.83
2018-08-24T18:30:58.250Z,4.73
2018-08-24T18:36:01.603Z,6.97
2018-08-24T18:41:04.629Z,12.53
2018-08-24T18:46:07.657Z,3.67
2018-08-24T18:51:10.681Z,5.80
2018-08-24T18:56:13.818Z,5.40
2018-08-24T19:01:16.972Z,3.20
2018-08-24T19:06:20.329Z,3.53
2018-08-24T19:11:29.015Z,4.00
2018-08-24T19:16:32.035Z,4.43
2018-08-24T19:21:41.240Z,10.50
2018-08-24T19:26:44.782Z,6.80
2018-08-24T19:31:47.915Z,7.17
2018-08-24T19:36:51.083Z,2.90
2018-08-24T19:41:59.620Z,3.37
2018-08-24T19:47:02.743Z,5.53
2018-08-24T19:52:06.219Z,8.50
2018-08-24T19:57:14.668Z,4.67
2018-08-24T20:02:17.851Z,6.23
2018-08-24T20:07:26.398Z,5.57
2018-08-24T20:12:29.403Z,4.37
2018-08-24T20:17:32.528Z,6.70
2018-08-24T20:22:35.551Z,7.60
2018-08-24T20:27:38.571Z,4.60
2018-08-24T20:32:41.888Z,3.20
2018-08-24T20:37:44.896Z,8.50
2018-08-24T20:42:47.901Z,2.97
2018-08-24T20:47:50.995Z,5.10
2018-08-24T20:52:54.029Z,4.47
2018-08-24T20:57:57.069Z,4.97
2018-08-24T21:03:00.223Z,3.83
2018-08-24T21:08:03.488Z,5.40
2018-08-24T21:13:06.505Z,5.83
2018-08-24T21:18:09.540Z,4.37
2018-08-24T21:23:12.583Z,5.80
2018-08-24T21:28:15.648Z,3.90
2018-08-24T21:33:18.688Z,9.33
2018-08-24T21:38:21.708Z,7.20
2018-08-24T21:43:24.754Z,9.30
2018-08-24T21:48:27.756Z,4.87
2018-08-24T21:53:30.811Z,2.53
2018-08-24T21:58:33.852Z,5.53
2018-08-24T22:03:36.860Z,3.10
2018-08-24T22:08:39.888Z,3.83
2018-08-24T22:13:42.903Z,5.73
2018-08-24T22:18:45.940Z,5.30
2018-08-24T22:23:48.958Z,3.67
2018-08-24T22:28:51.988Z,2.30
2018-08-24T22:33:55.027Z,3.23
2018-08-24T22:38:58.043Z,3.80
2018-08-24T22:44:01.096Z,1.60
2018-08-24T22:49:04.121Z,1.80
2018-08-24T22:54:07.172Z,9.60
2018-08-24T22:59:10.212Z,2.77
2018-08-24T23:04:13.291Z,9.83
2018-08-24T23:09:16.332Z,3.87
2018-08-24T23:14:19.359Z,4.43
2018-08-24T23:19:22.424Z,5.03
2018-08-24T23:24:25.448Z,2.80
2018-08-24T23:29:28.489Z,4.40
2018-08-24T23:34:31.523Z,8.10
2018-08-24T23:39:34.548Z,3.00
2018-08-24T23:44:37.580Z,6.53
2018-08-24T23:49:40.612Z,2.73
2018-08-24T23:54:43.737Z,1.53
2018-08-24T23:59:46.767Z,9.10
